sensor_id;sensor_type;location;lat;lon;timestamp;P1;durP1;ratioP1;P2;durP2;ratioP2
60472;SDS011;46318;52.716;6.444;2024-03-08T00:02:03;36.28;;;28.85;;
60472;SDS011;46318;52.716;6.444;2024-03-08T00:04:29;34.65;;;27.92;;
60472;SDS011;46318;52.716;6.444;2024-03-08T00:06:55;35.22;;;28.25;;
60472;SDS011;46318;52.716;6.444;2024-03-08T00:09:20;35.65;;;27.98;;
60472;SDS011;46318;52.716;6.444;2024-03-08T00:11:46;38.95;;;28.85;;
60472;SDS011;46318;52.716;6.444;2024-03-08T00:14:16;36.45;;;27.48;;
60472;SDS011;46318;52.716;6.444;2024-03-08T00:16:41;33.10;;;27.45;;
60472;SDS011;46318;52.716;6.444;2024-03-08T00:19:08;35.35;;;27.27;;
60472;SDS011;46318;52.716;6.444;2024-03-08T00:21:35;35.97;;;27.27;;
60472;SDS011;46318;52.716;6.444;2024-03-08T00:24:01;34.80;;;27.85;;
60472;SDS011;46318;52.716;6.444;2024-03-08T00:26:27;34.78;;;27.50;;
60472;SDS011;46318;52.716;6.444;2024-03-08T00:28:54;35.28;;;28.42;;
60472;SDS011;46318;52.716;6.444;2024-03-08T00:31:20;37.85;;;28.20;;
60472;SDS011;46318;52.716;6.444;2024-03-08T00:33:46;33.13;;;27.67;;
60472;SDS011;46318;52.716;6.444;2024-03-08T00:36:12;36.33;;;28.90;;
60472;SDS011;46318;52.716;6.444;2024-03-08T00:38:38;34.13;;;27.85;;
60472;SDS011;46318;52.716;6.444;2024-03-08T00:41:04;35.13;;;27.65;;
60472;SDS011;46318;52.716;6.444;2024-03-08T00:43:29;33.88;;;26.90;;
60472;SDS011;46318;52.716;6.444;2024-03-08T00:45:55;37.60;;;28.92;;
60472;SDS011;46318;52.716;6.444;2024-03-08T00:48:22;40.95;;;30.02;;
60472;SDS011;46318;52.716;6.444;2024-03-08T00:50:49;33.85;;;28.25;;
60472;SDS011;46318;52.716;6.444;2024-03-08T00:53:15;35.10;;;27.88;;
60472;SDS011;46318;52.716;6.444;2024-03-08T00:55:41;37.88;;;29.40;;
60472;SDS011;46318;52.716;6.444;2024-03-08T00:58:07;36.45;;;28.70;;
60472;SDS011;46318;52.716;6.444;2024-03-08T01:00:34;35.95;;;28.35;;
60472;SDS011;46318;52.716;6.444;2024-03-08T01:03:00;37.72;;;28.27;;
60472;SDS011;46318;52.716;6.444;2024-03-08T01:05:26;39.05;;;29.33;;
60472;SDS011;46318;52.716;6.444;2024-03-08T01:07:51;37.05;;;29.05;;
60472;SDS011;46318;52.716;6.444;2024-03-08T01:10:17;36.30;;;29.00;;
60472;SDS011;46318;52.716;6.444;2024-03-08T01:12:43;38.50;;;30.17;;
60472;SDS011;46318;52.716;6.444;2024-03-08T01:15:10;37.50;;;29.65;;
60472;SDS011;46318;52.716;6.444;2024-03-08T01:17:36;36.42;;;29.13;;
60472;SDS011;46318;52.716;6.444;2024-03-08T01:20:02;35.75;;;29.05;;
60472;SDS011;46318;52.716;6.444;2024-03-08T01:22:30;36.53;;;28.58;;
60472;SDS011;46318;52.716;6.444;2024-03-08T01:24:56;35.63;;;28.55;;
60472;SDS011;46318;52.716;6.444;2024-03-08T01:27:22;39.08;;;28.85;;
60472;SDS011;46318;52.716;6.444;2024-03-08T01:29:50;35.60;;;27.83;;
60472;SDS011;46318;52.716;6.444;2024-03-08T01:32:16;35.13;;;28.63;;
60472;SDS011;46318;52.716;6.444;2024-03-08T01:34:42;37.75;;;29.17;;
60472;SDS011;46318;52.716;6.444;2024-03-08T01:37:10;38.22;;;28.95;;
60472;SDS011;46318;52.716;6.444;2024-03-08T01:39:35;36.20;;;27.60;;
60472;SDS011;46318;52.716;6.444;2024-03-08T01:42:01;39.90;;;29.50;;
60472;SDS011;46318;52.716;6.444;2024-03-08T01:44:27;37.58;;;28.63;;
60472;SDS011;46318;52.716;6.444;2024-03-08T01:46:53;35.55;;;28.52;;
60472;SDS011;46318;52.716;6.444;2024-03-08T01:49:20;34.70;;;28.27;;
60472;SDS011;46318;52.716;6.444;2024-03-08T01:51:47;35.60;;;28.85;;
60472;SDS011;46318;52.716;6.444;2024-03-08T01:54:14;38.45;;;28.80;;
60472;SDS011;46318;52.716;6.444;2024-03-08T01:56:42;36.10;;;29.80;;
60472;SDS011;46318;52.716;6.444;2024-03-08T01:59:08;37.45;;;30.05;;
60472;SDS011;46318;52.716;6.444;2024-03-08T02:01:34;36.03;;;28.13;;
60472;SDS011;46318;52.716;6.444;2024-03-08T02:04:00;36.28;;;29.75;;
60472;SDS011;46318;52.716;6.444;2024-03-08T02:06:26;36.25;;;29.38;;
60472;SDS011;46318;52.716;6.444;2024-03-08T02:08:52;35.03;;;28.67;;
60472;SDS011;46318;52.716;6.444;2024-03-08T02:11:18;35.17;;;28.08;;
60472;SDS011;46318;52.716;6.444;2024-03-08T02:13:45;36.28;;;29.10;;
60472;SDS011;46318;52.716;6.444;2024-03-08T02:16:11;35.17;;;28.67;;
60472;SDS011;46318;52.716;6.444;2024-03-08T02:18:37;36.83;;;29.85;;
60472;SDS011;46318;52.716;6.444;2024-03-08T02:21:04;36.47;;;30.75;;
60472;SDS011;46318;52.716;6.444;2024-03-08T02:23:33;38.92;;;30.40;;
60472;SDS011;46318;52.716;6.444;2024-03-08T02:25:59;37.35;;;30.05;;
60472;SDS011;46318;52.716;6.444;2024-03-08T02:28:25;35.58;;;30.42;;
60472;SDS011;46318;52.716;6.444;2024-03-08T02:30:51;36.97;;;28.80;;
60472;SDS011;46318;52.716;6.444;2024-03-08T02:33:19;38.30;;;29.10;;
60472;SDS011;46318;52.716;6.444;2024-03-08T02:35:45;35.67;;;28.73;;
60472;SDS011;46318;52.716;6.444;2024-03-08T02:38:16;36.70;;;30.48;;
60472;SDS011;46318;52.716;6.444;2024-03-08T02:40:49;38.38;;;30.02;;
60472;SDS011;46318;52.716;6.444;2024-03-08T02:43:17;37.70;;;30.17;;
60472;SDS011;46318;52.716;6.444;2024-03-08T02:45:44;37.72;;;30.25;;
60472;SDS011;46318;52.716;6.444;2024-03-08T02:48:10;38.53;;;29.50;;
60472;SDS011;46318;52.716;6.444;2024-03-08T02:50:37;37.92;;;30.25;;
60472;SDS011;46318;52.716;6.444;2024-03-08T02:53:07;38.70;;;29.77;;
60472;SDS011;46318;52.716;6.444;2024-03-08T02:55:33;37.65;;;31.30;;
60472;SDS011;46318;52.716;6.444;2024-03-08T02:58:01;35.22;;;30.63;;
60472;SDS011;46318;52.716;6.444;2024-03-08T03:00:30;37.25;;;31.05;;
60472;SDS011;46318;52.716;6.444;2024-03-08T03:02:56;36.47;;;30.42;;
60472;SDS011;46318;52.716;6.444;2024-03-08T03:05:23;36.83;;;30.08;;
60472;SDS011;46318;52.716;6.444;2024-03-08T03:07:49;38.70;;;30.73;;
60472;SDS011;46318;52.716;6.444;2024-03-08T03:10:16;36.90;;;28.75;;
60472;SDS011;46318;52.716;6.444;2024-03-08T03:12:43;36.20;;;29.92;;
60472;SDS011;46318;52.716;6.444;2024-03-08T03:15:13;37.30;;;29.15;;
60472;SDS011;46318;52.716;6.444;2024-03-08T03:17:45;37.35;;;29.70;;
60472;SDS011;46318;52.716;6.444;2024-03-08T03:20:16;36.50;;;30.08;;
60472;SDS011;46318;52.716;6.444;2024-03-08T03:22:48;36.72;;;30.55;;
60472;SDS011;46318;52.716;6.444;2024-03-08T03:25:18;35.75;;;29.80;;
60472;SDS011;46318;52.716;6.444;2024-03-08T03:27:50;38.17;;;30.23;;
60472;SDS011;46318;52.716;6.444;2024-03-08T03:30:22;37.88;;;30.55;;
60472;SDS011;46318;52.716;6.444;2024-03-08T03:32:51;36.95;;;29.90;;
60472;SDS011;46318;52.716;6.444;2024-03-08T03:35:19;37.80;;;30.00;;
60472;SDS011;46318;52.716;6.444;2024-03-08T03:37:46;37.17;;;30.15;;
60472;SDS011;46318;52.716;6.444;2024-03-08T03:40:35;39.28;;;30.40;;
60472;SDS011;46318;52.716;6.444;2024-03-08T03:43:07;39.42;;;30.55;;
60472;SDS011;46318;52.716;6.444;2024-03-08T03:45:35;38.92;;;31.08;;
60472;SDS011;46318;52.716;6.444;2024-03-08T03:48:04;36.42;;;30.13;;
60472;SDS011;46318;52.716;6.444;2024-03-08T03:50:31;37.33;;;29.83;;
60472;SDS011;46318;52.716;6.444;2024-03-08T03:53:00;37.67;;;31.70;;
60472;SDS011;46318;52.716;6.444;2024-03-08T03:55:27;38.03;;;30.98;;
60472;SDS011;46318;52.716;6.444;2024-03-08T03:57:53;42.95;;;32.13;;
60472;SDS011;46318;52.716;6.444;2024-03-08T04:00:20;41.35;;;32.10;;
60472;SDS011;46318;52.716;6.444;2024-03-08T04:02:45;41.38;;;31.00;;
60472;SDS011;46318;52.716;6.444;2024-03-08T04:05:12;35.95;;;30.27;;
60472;SDS011;46318;52.716;6.444;2024-03-08T04:07:38;39.75;;;31.73;;
60472;SDS011;46318;52.716;6.444;2024-03-08T04:10:05;39.83;;;32.15;;
60472;SDS011;46318;52.716;6.444;2024-03-08T04:12:35;40.20;;;31.42;;
60472;SDS011;46318;52.716;6.444;2024-03-08T04:15:02;40.03;;;31.15;;
60472;SDS011;46318;52.716;6.444;2024-03-08T04:17:30;37.65;;;30.88;;
60472;SDS011;46318;52.716;6.444;2024-03-08T04:19:56;39.92;;;32.22;;
60472;SDS011;46318;52.716;6.444;2024-03-08T04:22:22;41.45;;;33.17;;
60472;SDS011;46318;52.716;6.444;2024-03-08T04:24:47;35.15;;;29.70;;
60472;SDS011;46318;52.716;6.444;2024-03-08T04:27:13;41.67;;;33.13;;
60472;SDS011;46318;52.716;6.444;2024-03-08T04:29:39;37.38;;;30.92;;
60472;SDS011;46318;52.716;6.444;2024-03-08T04:32:06;41.25;;;31.88;;
60472;SDS011;46318;52.716;6.444;2024-03-08T04:34:33;40.58;;;32.03;;
60472;SDS011;46318;52.716;6.444;2024-03-08T04:37:00;40.63;;;33.65;;
60472;SDS011;46318;52.716;6.444;2024-03-08T04:39:27;40.40;;;31.75;;
60472;SDS011;46318;52.716;6.444;2024-03-08T04:41:53;41.03;;;33.63;;
60472;SDS011;46318;52.716;6.444;2024-03-08T04:44:22;37.45;;;31.38;;
60472;SDS011;46318;52.716;6.444;2024-03-08T04:46:49;40.55;;;31.52;;
60472;SDS011;46318;52.716;6.444;2024-03-08T04:49:15;39.47;;;32.45;;
60472;SDS011;46318;52.716;6.444;2024-03-08T04:51:41;40.40;;;31.85;;
60472;SDS011;46318;52.716;6.444;2024-03-08T04:54:07;38.92;;;32.13;;
60472;SDS011;46318;52.716;6.444;2024-03-08T04:56:33;42.80;;;33.03;;
60472;SDS011;46318;52.716;6.444;2024-03-08T04:58:59;41.35;;;31.73;;
60472;SDS011;46318;52.716;6.444;2024-03-08T05:01:25;39.05;;;33.30;;
60472;SDS011;46318;52.716;6.444;2024-03-08T05:03:51;40.58;;;33.15;;
60472;SDS011;46318;52.716;6.444;2024-03-08T05:06:20;39.92;;;32.80;;
60472;SDS011;46318;52.716;6.444;2024-03-08T05:08:46;44.22;;;32.33;;
60472;SDS011;46318;52.716;6.444;2024-03-08T05:11:12;41.65;;;33.00;;
60472;SDS011;46318;52.716;6.444;2024-03-08T05:13:39;41.47;;;33.10;;
60472;SDS011;46318;52.716;6.444;2024-03-08T05:16:06;40.88;;;32.47;;
60472;SDS011;46318;52.716;6.444;2024-03-08T05:18:33;44.30;;;33.42;;
60472;SDS011;46318;52.716;6.444;2024-03-08T05:21:01;41.60;;;32.22;;
60472;SDS011;46318;52.716;6.444;2024-03-08T05:23:29;39.75;;;32.00;;
60472;SDS011;46318;52.716;6.444;2024-03-08T05:25:55;41.05;;;33.05;;
60472;SDS011;46318;52.716;6.444;2024-03-08T05:28:22;43.63;;;33.55;;
60472;SDS011;46318;52.716;6.444;2024-03-08T05:30:48;43.08;;;34.08;;
60472;SDS011;46318;52.716;6.444;2024-03-08T05:33:13;43.22;;;34.13;;
60472;SDS011;46318;52.716;6.444;2024-03-08T05:35:39;42.92;;;34.22;;
60472;SDS011;46318;52.716;6.444;2024-03-08T05:38:06;40.70;;;32.28;;
60472;SDS011;46318;52.716;6.444;2024-03-08T05:40:32;40.83;;;33.15;;
60472;SDS011;46318;52.716;6.444;2024-03-08T05:42:58;40.67;;;33.35;;
60472;SDS011;46318;52.716;6.444;2024-03-08T05:45:24;39.67;;;31.58;;
60472;SDS011;46318;52.716;6.444;2024-03-08T05:47:51;42.03;;;33.95;;
60472;SDS011;46318;52.716;6.444;2024-03-08T05:50:18;43.17;;;33.60;;
60472;SDS011;46318;52.716;6.444;2024-03-08T05:52:44;42.65;;;33.47;;
60472;SDS011;46318;52.716;6.444;2024-03-08T05:55:10;43.05;;;34.13;;
60472;SDS011;46318;52.716;6.444;2024-03-08T05:57:39;45.42;;;35.33;;
60472;SDS011;46318;52.716;6.444;2024-03-08T06:00:08;43.20;;;34.85;;
60472;SDS011;46318;52.716;6.444;2024-03-08T06:02:40;43.92;;;34.85;;
60472;SDS011;46318;52.716;6.444;2024-03-08T06:05:10;42.08;;;33.70;;
60472;SDS011;46318;52.716;6.444;2024-03-08T06:07:36;45.60;;;34.88;;
60472;SDS011;46318;52.716;6.444;2024-03-08T06:10:05;43.08;;;35.35;;
60472;SDS011;46318;52.716;6.444;2024-03-08T06:12:35;46.10;;;33.53;;
60472;SDS011;46318;52.716;6.444;2024-03-08T06:15:09;43.50;;;34.03;;
60472;SDS011;46318;52.716;6.444;2024-03-08T06:17:35;42.53;;;34.33;;
60472;SDS011;46318;52.716;6.444;2024-03-08T06:20:02;48.92;;;35.05;;
60472;SDS011;46318;52.716;6.444;2024-03-08T06:22:29;45.85;;;34.55;;
60472;SDS011;46318;52.716;6.444;2024-03-08T06:24:55;42.05;;;33.78;;
60472;SDS011;46318;52.716;6.444;2024-03-08T06:27:21;45.30;;;34.53;;
60472;SDS011;46318;52.716;6.444;2024-03-08T06:29:47;40.17;;;33.95;;
60472;SDS011;46318;52.716;6.444;2024-03-08T06:32:14;45.65;;;34.70;;
60472;SDS011;46318;52.716;6.444;2024-03-08T06:34:40;39.60;;;32.72;;
60472;SDS011;46318;52.716;6.444;2024-03-08T06:37:06;58.88;;;33.80;;
60472;SDS011;46318;52.716;6.444;2024-03-08T06:39:32;44.38;;;33.78;;
60472;SDS011;46318;52.716;6.444;2024-03-08T06:41:59;40.88;;;33.38;;
60472;SDS011;46318;52.716;6.444;2024-03-08T06:44:25;44.85;;;35.20;;
60472;SDS011;46318;52.716;6.444;2024-03-08T06:46:51;44.28;;;35.22;;
60472;SDS011;46318;52.716;6.444;2024-03-08T06:49:16;46.72;;;34.08;;
60472;SDS011;46318;52.716;6.444;2024-03-08T06:51:42;46.25;;;36.15;;
60472;SDS011;46318;52.716;6.444;2024-03-08T06:54:08;44.03;;;35.25;;
60472;SDS011;46318;52.716;6.444;2024-03-08T06:56:34;47.38;;;34.42;;
60472;SDS011;46318;52.716;6.444;2024-03-08T06:59:00;45.00;;;34.70;;
60472;SDS011;46318;52.716;6.444;2024-03-08T07:01:28;42.97;;;35.10;;
60472;SDS011;46318;52.716;6.444;2024-03-08T07:03:57;43.28;;;34.92;;
60472;SDS011;46318;52.716;6.444;2024-03-08T07:06:23;44.22;;;34.95;;
60472;SDS011;46318;52.716;6.444;2024-03-08T07:08:49;47.85;;;35.08;;
60472;SDS011;46318;52.716;6.444;2024-03-08T07:11:14;46.10;;;36.13;;
60472;SDS011;46318;52.716;6.444;2024-03-08T07:13:44;41.75;;;33.85;;
60472;SDS011;46318;52.716;6.444;2024-03-08T07:16:10;44.85;;;33.20;;
60472;SDS011;46318;52.716;6.444;2024-03-08T07:18:37;41.22;;;33.45;;
60472;SDS011;46318;52.716;6.444;2024-03-08T07:21:08;41.35;;;33.10;;
60472;SDS011;46318;52.716;6.444;2024-03-08T07:23:37;47.95;;;36.67;;
60472;SDS011;46318;52.716;6.444;2024-03-08T07:26:24;42.40;;;34.28;;
60472;SDS011;46318;52.716;6.444;2024-03-08T07:28:52;44.55;;;35.53;;
60472;SDS011;46318;52.716;6.444;2024-03-08T07:31:22;42.13;;;33.95;;
60472;SDS011;46318;52.716;6.444;2024-03-08T07:33:51;44.53;;;35.00;;
60472;SDS011;46318;52.716;6.444;2024-03-08T07:36:18;43.63;;;35.28;;
60472;SDS011;46318;52.716;6.444;2024-03-08T07:38:44;46.85;;;34.88;;
60472;SDS011;46318;52.716;6.444;2024-03-08T07:41:13;41.33;;;32.97;;
60472;SDS011;46318;52.716;6.444;2024-03-08T07:43:40;42.83;;;35.15;;
60472;SDS011;46318;52.716;6.444;2024-03-08T07:46:06;41.85;;;34.03;;
60472;SDS011;46318;52.716;6.444;2024-03-08T07:48:31;41.22;;;34.00;;
60472;SDS011;46318;52.716;6.444;2024-03-08T07:50:57;44.45;;;33.85;;
60472;SDS011;46318;52.716;6.444;2024-03-08T07:53:23;41.15;;;33.90;;
60472;SDS011;46318;52.716;6.444;2024-03-08T07:55:51;41.08;;;34.17;;
60472;SDS011;46318;52.716;6.444;2024-03-08T07:58:17;42.92;;;34.33;;
60472;SDS011;46318;52.716;6.444;2024-03-08T08:00:43;43.85;;;34.97;;
60472;SDS011;46318;52.716;6.444;2024-03-08T08:03:09;41.97;;;33.45;;
60472;SDS011;46318;52.716;6.444;2024-03-08T08:05:35;41.20;;;32.75;;
60472;SDS011;46318;52.716;6.444;2024-03-08T08:08:03;40.70;;;33.85;;
60472;SDS011;46318;52.716;6.444;2024-03-08T08:10:38;40.28;;;34.33;;
60472;SDS011;46318;52.716;6.444;2024-03-08T08:13:04;43.20;;;33.60;;
60472;SDS011;46318;52.716;6.444;2024-03-08T08:15:30;41.22;;;33.55;;
60472;SDS011;46318;52.716;6.444;2024-03-08T08:17:55;42.25;;;33.05;;
60472;SDS011;46318;52.716;6.444;2024-03-08T08:20:21;39.72;;;32.92;;
60472;SDS011;46318;52.716;6.444;2024-03-08T08:22:48;39.05;;;32.08;;
60472;SDS011;46318;52.716;6.444;2024-03-08T08:25:14;43.60;;;35.17;;
60472;SDS011;46318;52.716;6.444;2024-03-08T08:27:40;40.92;;;33.45;;
60472;SDS011;46318;52.716;6.444;2024-03-08T08:30:08;38.78;;;32.15;;
60472;SDS011;46318;52.716;6.444;2024-03-08T08:32:34;44.85;;;33.45;;
60472;SDS011;46318;52.716;6.444;2024-03-08T08:35:02;40.80;;;33.53;;
60472;SDS011;46318;52.716;6.444;2024-03-08T08:37:31;41.50;;;32.90;;
60472;SDS011;46318;52.716;6.444;2024-03-08T08:39:57;36.13;;;31.35;;
60472;SDS011;46318;52.716;6.444;2024-03-08T08:42:23;38.47;;;32.60;;
60472;SDS011;46318;52.716;6.444;2024-03-08T08:44:51;40.55;;;33.90;;
60472;SDS011;46318;52.716;6.444;2024-03-08T08:47:17;38.55;;;33.67;;
60472;SDS011;46318;52.716;6.444;2024-03-08T08:49:44;42.17;;;32.55;;
60472;SDS011;46318;52.716;6.444;2024-03-08T08:52:11;39.70;;;32.03;;
60472;SDS011;46318;52.716;6.444;2024-03-08T08:54:37;39.28;;;32.33;;
60472;SDS011;46318;52.716;6.444;2024-03-08T08:57:03;40.90;;;33.42;;
60472;SDS011;46318;52.716;6.444;2024-03-08T08:59:35;37.75;;;31.40;;
60472;SDS011;46318;52.716;6.444;2024-03-08T09:02:04;41.67;;;33.95;;
60472;SDS011;46318;52.716;6.444;2024-03-08T09:04:31;38.72;;;32.85;;
60472;SDS011;46318;52.716;6.444;2024-03-08T09:06:57;37.75;;;32.63;;
60472;SDS011;46318;52.716;6.444;2024-03-08T09:09:23;38.05;;;32.33;;
60472;SDS011;46318;52.716;6.444;2024-03-08T09:11:50;40.00;;;32.53;;
60472;SDS011;46318;52.716;6.444;2024-03-08T09:14:19;36.92;;;31.65;;
60472;SDS011;46318;52.716;6.444;2024-03-08T09:16:45;39.58;;;33.42;;
60472;SDS011;46318;52.716;6.444;2024-03-08T09:19:12;40.58;;;32.35;;
60472;SDS011;46318;52.716;6.444;2024-03-08T09:21:38;38.03;;;33.20;;
60472;SDS011;46318;52.716;6.444;2024-03-08T09:24:05;38.75;;;33.45;;
60472;SDS011;46318;52.716;6.444;2024-03-08T09:26:34;37.20;;;32.53;;
60472;SDS011;46318;52.716;6.444;2024-03-08T09:29:00;38.13;;;32.25;;
60472;SDS011;46318;52.716;6.444;2024-03-08T09:31:26;37.13;;;30.92;;
60472;SDS011;46318;52.716;6.444;2024-03-08T09:33:51;38.83;;;33.10;;
60472;SDS011;46318;52.716;6.444;2024-03-08T09:36:17;37.85;;;31.67;;
60472;SDS011;46318;52.716;6.444;2024-03-08T09:38:43;36.33;;;32.35;;
60472;SDS011;46318;52.716;6.444;2024-03-08T09:41:09;37.00;;;30.92;;
60472;SDS011;46318;52.716;6.444;2024-03-08T09:43:35;37.78;;;31.88;;
60472;SDS011;46318;52.716;6.444;2024-03-08T09:46:02;38.85;;;33.50;;
60472;SDS011;46318;52.716;6.444;2024-03-08T09:48:31;37.80;;;31.77;;
60472;SDS011;46318;52.716;6.444;2024-03-08T09:50:57;38.03;;;32.60;;
60472;SDS011;46318;52.716;6.444;2024-03-08T09:53:23;37.47;;;31.58;;
60472;SDS011;46318;52.716;6.444;2024-03-08T09:55:49;37.08;;;32.88;;
60472;SDS011;46318;52.716;6.444;2024-03-08T09:58:15;40.28;;;31.75;;
60472;SDS011;46318;52.716;6.444;2024-03-08T10:00:52;37.08;;;32.40;;
60472;SDS011;46318;52.716;6.444;2024-03-08T10:03:19;37.90;;;31.55;;
60472;SDS011;46318;52.716;6.444;2024-03-08T10:05:45;36.65;;;31.63;;
60472;SDS011;46318;52.716;6.444;2024-03-08T10:08:11;36.45;;;32.35;;
60472;SDS011;46318;52.716;6.444;2024-03-08T10:10:41;36.08;;;32.08;;
60472;SDS011;46318;52.716;6.444;2024-03-08T10:13:08;35.70;;;31.77;;
60472;SDS011;46318;52.716;6.444;2024-03-08T10:15:36;40.17;;;32.35;;
60472;SDS011;46318;52.716;6.444;2024-03-08T10:18:01;35.92;;;32.05;;
60472;SDS011;46318;52.716;6.444;2024-03-08T10:20:28;38.15;;;33.05;;
60472;SDS011;46318;52.716;6.444;2024-03-08T10:23:02;39.85;;;33.65;;
60472;SDS011;46318;52.716;6.444;2024-03-08T10:25:30;35.92;;;31.83;;
60472;SDS011;46318;52.716;6.444;2024-03-08T10:27:56;36.28;;;32.38;;
60472;SDS011;46318;52.716;6.444;2024-03-08T10:30:22;37.28;;;32.38;;
60472;SDS011;46318;52.716;6.444;2024-03-08T10:32:48;36.97;;;32.50;;
60472;SDS011;46318;52.716;6.444;2024-03-08T10:35:15;37.47;;;32.80;;
60472;SDS011;46318;52.716;6.444;2024-03-08T10:37:48;35.17;;;31.10;;
60472;SDS011;46318;52.716;6.444;2024-03-08T10:40:34;37.08;;;31.42;;
60472;SDS011;46318;52.716;6.444;2024-03-08T10:43:03;34.95;;;31.17;;
60472;SDS011;46318;52.716;6.444;2024-03-08T10:45:35;35.78;;;30.88;;
60472;SDS011;46318;52.716;6.444;2024-03-08T10:50:57;35.83;;;30.42;;
60472;SDS011;46318;52.716;6.444;2024-03-08T10:53:27;36.60;;;32.17;;
60472;SDS011;46318;52.716;6.444;2024-03-08T10:55:57;35.95;;;32.05;;
60472;SDS011;46318;52.716;6.444;2024-03-08T10:58:26;34.65;;;30.95;;
60472;SDS011;46318;52.716;6.444;2024-03-08T11:00:53;33.63;;;30.00;;
60472;SDS011;46318;52.716;6.444;2024-03-08T11:03:54;34.55;;;29.52;;
60472;SDS011;46318;52.716;6.444;2024-03-08T11:06:19;35.58;;;31.13;;
60472;SDS011;46318;52.716;6.444;2024-03-08T11:09:03;36.58;;;31.92;;
60472;SDS011;46318;52.716;6.444;2024-03-08T11:11:38;35.30;;;31.45;;
60472;SDS011;46318;52.716;6.444;2024-03-08T11:14:08;35.55;;;31.35;;
60472;SDS011;46318;52.716;6.444;2024-03-08T11:17:15;35.90;;;31.70;;
60472;SDS011;46318;52.716;6.444;2024-03-08T11:19:46;36.58;;;30.90;;
60472;SDS011;46318;52.716;6.444;2024-03-08T11:22:20;33.55;;;30.05;;
60472;SDS011;46318;52.716;6.444;2024-03-08T11:25:01;33.67;;;30.20;;
60472;SDS011;46318;52.716;6.444;2024-03-08T11:27:35;36.45;;;30.85;;
60472;SDS011;46318;52.716;6.444;2024-03-08T11:30:05;34.22;;;29.85;;
60472;SDS011;46318;52.716;6.444;2024-03-08T11:35:06;33.70;;;30.10;;
60472;SDS011;46318;52.716;6.444;2024-03-08T11:37:44;31.90;;;28.45;;
60472;SDS011;46318;52.716;6.444;2024-03-08T11:40:12;33.00;;;28.70;;
60472;SDS011;46318;52.716;6.444;2024-03-08T11:42:48;32.63;;;29.13;;
60472;SDS011;46318;52.716;6.444;2024-03-08T11:45:17;32.40;;;28.98;;
60472;SDS011;46318;52.716;6.444;2024-03-08T11:47:46;32.97;;;29.38;;
60472;SDS011;46318;52.716;6.444;2024-03-08T11:50:15;34.10;;;30.42;;
60472;SDS011;46318;52.716;6.444;2024-03-08T11:52:43;33.65;;;30.05;;
60472;SDS011;46318;52.716;6.444;2024-03-08T11:55:09;33.92;;;29.77;;
60472;SDS011;46318;52.716;6.444;2024-03-08T11:57:37;30.90;;;27.65;;
60472;SDS011;46318;52.716;6.444;2024-03-08T12:00:11;31.92;;;28.05;;
60472;SDS011;46318;52.716;6.444;2024-03-08T12:03:00;31.33;;;28.05;;
60472;SDS011;46318;52.716;6.444;2024-03-08T12:05:35;30.85;;;27.55;;
60472;SDS011;46318;52.716;6.444;2024-03-08T12:08:04;32.33;;;28.98;;
60472;SDS011;46318;52.716;6.444;2024-03-08T12:10:32;32.55;;;29.13;;
60472;SDS011;46318;52.716;6.444;2024-03-08T12:12:58;31.48;;;27.65;;
60472;SDS011;46318;52.716;6.444;2024-03-08T12:15:24;30.88;;;27.50;;
60472;SDS011;46318;52.716;6.444;2024-03-08T12:17:51;30.38;;;26.83;;
60472;SDS011;46318;52.716;6.444;2024-03-08T12:20:21;33.33;;;27.63;;
60472;SDS011;46318;52.716;6.444;2024-03-08T12:25:19;28.90;;;25.90;;
60472;SDS011;46318;52.716;6.444;2024-03-08T12:27:45;31.02;;;26.58;;
60472;SDS011;46318;52.716;6.444;2024-03-08T12:30:25;29.52;;;26.50;;
60472;SDS011;46318;52.716;6.444;2024-03-08T12:32:56;29.52;;;26.38;;
60472;SDS011;46318;52.716;6.444;2024-03-08T12:35:24;30.42;;;27.10;;
60472;SDS011;46318;52.716;6.444;2024-03-08T12:37:52;30.13;;;26.85;;
60472;SDS011;46318;52.716;6.444;2024-03-08T12:40:26;29.95;;;26.85;;
60472;SDS011;46318;52.716;6.444;2024-03-08T12:42:57;28.27;;;25.38;;
60472;SDS011;46318;52.716;6.444;2024-03-08T12:45:24;31.55;;;26.77;;
60472;SDS011;46318;52.716;6.444;2024-03-08T12:47:50;27.85;;;24.95;;
60472;SDS011;46318;52.716;6.444;2024-03-08T12:50:18;27.50;;;24.70;;
60472;SDS011;46318;52.716;6.444;2024-03-08T12:52:45;27.02;;;24.23;;
60472;SDS011;46318;52.716;6.444;2024-03-08T12:55:11;26.75;;;23.67;;
60472;SDS011;46318;52.716;6.444;2024-03-08T12:57:37;27.00;;;24.20;;
60472;SDS011;46318;52.716;6.444;2024-03-08T13:00:04;28.27;;;25.38;;
60472;SDS011;46318;52.716;6.444;2024-03-08T13:02:31;27.20;;;24.42;;
60472;SDS011;46318;52.716;6.444;2024-03-08T13:04:57;29.25;;;26.20;;
60472;SDS011;46318;52.716;6.444;2024-03-08T13:07:23;27.92;;;24.48;;
60472;SDS011;46318;52.716;6.444;2024-03-08T13:09:53;27.83;;;25.02;;
60472;SDS011;46318;52.716;6.444;2024-03-08T13:12:19;26.00;;;23.38;;
60472;SDS011;46318;52.716;6.444;2024-03-08T13:14:46;26.63;;;23.88;;
60472;SDS011;46318;52.716;6.444;2024-03-08T13:17:16;25.58;;;22.98;;
60472;SDS011;46318;52.716;6.444;2024-03-08T13:19:45;25.58;;;22.98;;
60472;SDS011;46318;52.716;6.444;2024-03-08T13:22:11;25.35;;;22.75;;
60472;SDS011;46318;52.716;6.444;2024-03-08T13:24:41;24.70;;;22.20;;
60472;SDS011;46318;52.716;6.444;2024-03-08T13:27:08;25.88;;;23.08;;
60472;SDS011;46318;52.716;6.444;2024-03-08T13:29:52;27.35;;;24.63;;
60472;SDS011;46318;52.716;6.444;2024-03-08T13:32:18;27.20;;;24.33;;
60472;SDS011;46318;52.716;6.444;2024-03-08T13:34:45;26.35;;;23.73;;
60472;SDS011;46318;52.716;6.444;2024-03-08T13:37:16;26.98;;;24.20;;
60472;SDS011;46318;52.716;6.444;2024-03-08T13:39:42;25.65;;;23.05;;
60472;SDS011;46318;52.716;6.444;2024-03-08T13:42:11;26.42;;;23.85;;
60472;SDS011;46318;52.716;6.444;2024-03-08T13:44:47;26.38;;;23.77;;
60472;SDS011;46318;52.716;6.444;2024-03-08T13:47:18;25.25;;;22.85;;
60472;SDS011;46318;52.716;6.444;2024-03-08T13:49:44;27.10;;;24.27;;
60472;SDS011;46318;52.716;6.444;2024-03-08T13:52:10;27.10;;;24.40;;
60472;SDS011;46318;52.716;6.444;2024-03-08T13:54:38;26.83;;;24.02;;
60472;SDS011;46318;52.716;6.444;2024-03-08T13:57:04;26.55;;;23.85;;
60472;SDS011;46318;52.716;6.444;2024-03-08T13:59:30;26.98;;;24.38;;
60472;SDS011;46318;52.716;6.444;2024-03-08T14:02:09;25.92;;;23.42;;
60472;SDS011;46318;52.716;6.444;2024-03-08T14:04:38;27.40;;;24.65;;
60472;SDS011;46318;52.716;6.444;2024-03-08T14:07:06;27.33;;;24.58;;
60472;SDS011;46318;52.716;6.444;2024-03-08T14:09:33;27.88;;;25.08;;
60472;SDS011;46318;52.716;6.444;2024-03-08T14:12:04;27.10;;;24.40;;
60472;SDS011;46318;52.716;6.444;2024-03-08T14:14:33;28.25;;;25.42;;
60472;SDS011;46318;52.716;6.444;2024-03-08T14:17:00;27.80;;;25.10;;
60472;SDS011;46318;52.716;6.444;2024-03-08T14:19:27;27.33;;;24.58;;
60472;SDS011;46318;52.716;6.444;2024-03-08T14:21:53;27.45;;;24.60;;
60472;SDS011;46318;52.716;6.444;2024-03-08T14:24:19;27.75;;;24.95;;
60472;SDS011;46318;52.716;6.444;2024-03-08T14:26:45;26.77;;;24.13;;
60472;SDS011;46318;52.716;6.444;2024-03-08T14:29:14;28.30;;;25.45;;
60472;SDS011;46318;52.716;6.444;2024-03-08T14:31:40;27.73;;;24.90;;
60472;SDS011;46318;52.716;6.444;2024-03-08T14:34:08;27.80;;;25.08;;